PDT,Max TemperatureF,Mean TemperatureF,Min TemperatureF,Max Dew PointF,MeanDew PointF,Min DewpointF,Max Humidity, Mean Humidity, Min Humidity, Max Sea Level PressureIn, Mean Sea Level PressureIn, Min Sea Level PressureIn, Max VisibilityMiles, Mean VisibilityMiles, Min VisibilityMiles, Max Wind SpeedMPH, Mean Wind SpeedMPH, Max Gust SpeedMPH,PrecipitationIn, CloudCover, Events, WindDirDegrees
2013-9-1,96,82,68,63,60,55,68,49,30,29.90,29.85,29.79,10,10,10,8,5,,0.00,0,,297
2013-9-2,93,81,69,64,61,55,65,51,36,29.92,29.85,29.78,10,10,10,14,6,,0.00,0,,300
2013-9-3,91,80,69,63,60,57,73,53,36,29.97,29.89,29.82,10,10,10,10,7,,0.00,0,,304
2013-9-4,93,78,64,63,58,54,68,51,36,29.99,29.91,29.84,10,10,10,12,6,,0.00,0,,301
2013-9-5,91,78,64,61,56,52,68,49,36,29.96,29.91,29.84,10,10,10,12,7,,0.00,0,,302
2013-9-6,91,76,60,61,55,50,72,50,31,29.95,29.88,29.79,10,10,7,10,6,,0.00,0,,287
2013-9-7,98,80,62,61,57,48,78,50,18,29.88,29.82,29.73,10,10,6,7,1,,0.00,0,,199
2013-9-8,96,79,62,59,56,52,73,46,23,29.83,29.77,29.69,10,10,4,9,3,,0.00,0,,281
2013-9-9,96,80,64,59,56,48,73,48,20,29.77,29.71,29.64,10,10,6,9,3,,0.00,0,,239
2013-9-10,96,80,64,57,53,46,73,44,18,29.80,29.73,29.69,10,10,6,9,3,,0.00,0,,232
2013-9-11,89,76,62,61,54,50,72,52,29,29.96,29.90,29.81,10,10,9,9,4,,0.00,0,,299
2013-9-12,89,74,60,61,56,54,82,55,29,29.96,29.89,29.81,10,9,7,8,5,,0.00,0,,304
2013-9-13,93,78,62,61,57,54,77,51,28,29.85,29.78,29.68,10,10,6,9,2,,0.00,0,,296
2013-9-14,95,80,64,61,58,55,77,49,28,29.76,29.70,29.63,10,10,5,9,3,,0.00,0,,293
2013-9-15,93,76,60,61,54,50,77,48,24,29.80,29.74,29.70,10,10,9,13,6,,0.00,0,,301
2013-9-16,91,74,57,59,55,48,82,53,31,29.86,29.79,29.70,10,10,3,7,4,,0.00,0,,295
2013-9-17,87,74,60,55,49,43,68,45,24,29.83,29.78,29.74,10,10,9,15,8,18,0.00,0,,322
2013-9-18,82,68,53,54,49,45,77,51,28,29.89,29.82,29.77,10,10,1,10,5,17,0.00,0,,289
2013-9-19,89,72,55,54,49,46,77,50,25,29.86,29.79,29.71,10,10,5,8,2,,0.00,0,,213
2013-9-20,91,74,57,54,50,45,77,46,21,29.81,29.75,29.70,10,10,8,14,5,,0.00,0,,333
2013-9-21,80,68,57,57,53,46,82,60,32,29.89,29.83,29.73,10,9,1,29,7,38,0.00,1,,254
2013-9-22,75,63,51,52,48,45,82,59,36,29.97,29.92,29.88,10,10,5,12,7,21,0.00,1,,316
2013-9-23,82,66,51,54,50,45,77,57,37,30.02,29.96,29.89,10,10,8,7,3,,0.00,0,,259
2013-9-24,87,71,55,54,50,46,77,51,27,29.98,29.89,29.79,10,10,5,18,4,24,0.00,0,,314
2013-9-25,73,64,55,46,44,39,67,48,33,29.92,29.83,29.74,10,10,5,18,12,23,0.00,1,,318
2013-9-26,73,60,48,43,40,36,71,49,29,29.95,29.85,29.77,10,10,7,13,6,,0.00,0,,319
2013-9-27,77,60,44,43,39,34,71,46,24,30.08,30.02,29.95,10,10,9,8,3,,0.00,0,,201
2013-9-28,84,65,46,45,39,36,71,44,19,30.10,30.04,29.97,10,10,10,6,2,,0.00,0,,146
2013-9-29,87,68,50,48,41,36,67,41,17,30.10,30.04,29.98,10,10,5,8,3,,0.00,0,,285
2013-9-30,82,66,51,55,51,46,82,57,35,30.07,29.99,29.90,10,10,8,10,5,,0.00,0,,316